createdAt,value
2019-05-13T00:02:04.594Z,7.00
2019-05-13T00:04:33.877Z,3.90
2019-05-13T00:07:04.727Z,4.00
2019-05-13T00:09:33.946Z,8.63
2019-05-13T00:12:04.707Z,5.23
2019-05-13T00:14:34.435Z,4.58
2019-05-13T00:17:04.203Z,5.70
2019-05-13T00:19:33.881Z,7.30
2019-05-13T00:22:03.870Z,5.90
2019-05-13T00:24:33.869Z,4.22
2019-05-13T00:27:03.851Z,5.00
2019-05-13T00:29:34.081Z,11.28
2019-05-13T00:32:04.768Z,6.20
2019-05-13T00:34:33.890Z,7.08
2019-05-13T00:37:08.957Z,4.00
2019-05-13T00:39:33.596Z,7.75
2019-05-13T00:42:04.033Z,5.90
2019-05-13T00:44:33.850Z,6.15
2019-05-13T00:47:04.462Z,5.60
2019-05-13T00:49:34.540Z,7.08
2019-05-13T00:52:03.862Z,5.23
2019-05-13T00:54:34.202Z,8.55
2019-05-13T00:57:04.112Z,7.58
2019-05-13T00:59:33.921Z,9.38
2019-05-13T01:02:03.573Z,7.03
2019-05-13T01:04:33.950Z,5.60
2019-05-13T01:07:04.363Z,5.93
2019-05-13T01:09:34.226Z,6.55
2019-05-13T01:12:04.349Z,5.77
2019-05-13T01:14:34.174Z,8.48
2019-05-13T01:17:03.918Z,6.20
2019-05-13T01:19:34.223Z,14.53
2019-05-13T01:22:03.427Z,10.20
2019-05-13T01:24:33.644Z,6.65
2019-05-13T01:27:03.837Z,17.35
2019-05-13T01:29:34.444Z,17.02
2019-05-13T01:32:04.462Z,13.95
2019-05-13T01:34:33.927Z,17.40
2019-05-13T01:37:04.189Z,5.17
2019-05-13T01:39:34.891Z,7.85
2019-05-13T01:42:03.656Z,6.80
2019-05-13T01:44:33.541Z,7.33
2019-05-13T01:47:04.577Z,5.53
2019-05-13T01:49:33.686Z,8.18
2019-05-13T01:52:03.777Z,6.47
2019-05-13T01:54:33.856Z,3.65
2019-05-13T01:57:04.395Z,6.27
2019-05-13T01:59:34.673Z,8.48
2019-05-13T02:02:03.481Z,4.50
2019-05-13T02:04:33.595Z,5.50
2019-05-13T02:07:04.091Z,4.40
2019-05-13T02:09:33.694Z,5.90
2019-05-13T02:12:04.552Z,10.50
2019-05-13T02:14:34.154Z,6.12
2019-05-13T02:17:04.277Z,5.40
2019-05-13T02:19:33.612Z,8.78
2019-05-13T02:22:03.998Z,4.30
2019-05-13T02:24:34.119Z,5.78
2019-05-13T02:27:03.688Z,4.57
2019-05-13T02:29:34.429Z,5.17
2019-05-13T02:32:03.062Z,4.97
2019-05-13T02:34:32.430Z,6.37
2019-05-13T02:37:03.327Z,5.53
2019-05-13T02:39:32.809Z,4.85
2019-05-13T02:42:03.594Z,3.33
2019-05-13T02:44:33.396Z,8.75
2019-05-13T02:47:03.300Z,7.07
2019-05-13T02:49:32.447Z,7.67
2019-05-13T02:52:02.815Z,4.20
2019-05-13T02:54:34.296Z,4.92
2019-05-13T02:57:03.769Z,6.28
2019-05-13T02:59:33.689Z,10.68
2019-05-13T03:02:03.728Z,4.60
2019-05-13T03:04:32.782Z,9.40
2019-05-13T03:07:02.992Z,6.73
2019-05-13T03:09:32.447Z,13.08
2019-05-13T03:12:04.136Z,12.60
2019-05-13T03:14:32.272Z,15.83
2019-05-13T03:17:08.560Z,11.70
2019-05-13T03:19:56.418Z,12.75
2019-05-13T03:22:24.672Z,5.37
2019-05-13T03:24:53.455Z,4.90
2019-05-13T03:27:24.909Z,5.80
2019-05-13T03:29:53.344Z,6.55
2019-05-13T03:32:27.053Z,7.17
2019-05-13T03:34:56.251Z,5.75
2019-05-13T03:37:26.452Z,5.80
2019-05-13T03:39:54.337Z,9.23
2019-05-13T03:42:24.130Z,5.07
2019-05-13T03:44:54.430Z,5.05
2019-05-13T03:47:23.552Z,4.30
2019-05-13T03:49:53.531Z,5.30
2019-05-13T03:52:22.520Z,4.47
2019-05-13T03:54:52.046Z,6.10
2019-05-13T03:57:23.232Z,7.90
2019-05-13T03:59:52.616Z,6.05
2019-05-13T04:02:22.566Z,8.00
2019-05-13T04:04:53.034Z,5.75
2019-05-13T04:07:23.752Z,7.92
2019-05-13T04:09:52.553Z,7.47
2019-05-13T04:12:22.733Z,13.00
2019-05-13T04:14:52.885Z,8.68
2019-05-13T04:17:24.287Z,5.20
2019-05-13T04:19:52.989Z,6.45
2019-05-13T04:22:23.010Z,6.80
2019-05-13T04:24:52.986Z,9.45
2019-05-13T04:27:23.395Z,5.10
2019-05-13T04:29:52.892Z,7.62
2019-05-13T04:32:22.936Z,6.73
2019-05-13T04:34:52.950Z,5.92
2019-05-13T04:37:22.296Z,6.53
2019-05-13T04:39:55.857Z,6.10
2019-05-13T04:42:23.200Z,7.23
2019-05-13T04:44:53.281Z,6.47
2019-05-13T04:47:22.926Z,11.80
2019-05-13T04:49:53.381Z,9.53
2019-05-13T04:52:22.489Z,6.33
2019-05-13T04:54:52.839Z,7.55
2019-05-13T04:57:22.683Z,12.47
2019-05-13T04:59:54.887Z,9.43
2019-05-13T05:02:48.475Z,5.58
2019-05-13T05:05:22.760Z,8.65
2019-05-13T05:08:08.235Z,10.30
2019-05-13T05:10:43.061Z,11.67
2019-05-13T05:13:32.325Z,7.40
2019-05-13T05:16:08.378Z,10.30
2019-05-13T05:18:55.210Z,11.03
2019-05-13T05:21:25.061Z,12.40
2019-05-13T05:23:57.796Z,8.83
2019-05-13T05:26:33.504Z,9.38
2019-05-13T05:29:23.334Z,15.85
2019-05-13T05:32:13.072Z,16.17
2019-05-13T05:34:43.078Z,21.20
2019-05-13T05:37:22.362Z,15.67
2019-05-13T05:39:52.454Z,6.42
2019-05-13T05:42:21.874Z,5.80
2019-05-13T05:45:11.566Z,10.55
2019-05-13T05:47:41.954Z,9.45
2019-05-13T05:50:12.120Z,12.80
2019-05-13T05:52:42.321Z,11.78
2019-05-13T05:55:11.375Z,5.50
2019-05-13T05:57:41.957Z,19.07
2019-05-13T06:00:11.580Z,6.85
2019-05-13T06:02:43.669Z,8.40
2019-05-13T06:05:12.711Z,11.80
2019-05-13T06:07:42.142Z,9.18
2019-05-13T06:10:11.424Z,11.10
2019-05-13T06:12:42.326Z,7.95
2019-05-13T06:15:12.355Z,9.18
2019-05-13T06:17:41.423Z,10.85
2019-05-13T06:20:13.219Z,5.87
2019-05-13T06:22:42.567Z,7.53
2019-05-13T06:25:14.616Z,8.85
2019-05-13T06:27:42.254Z,9.70
2019-05-13T06:30:12.557Z,9.50
2019-05-13T06:32:41.916Z,7.58
2019-05-13T06:35:11.590Z,9.23
2019-05-13T06:37:41.499Z,9.20
2019-05-13T06:40:12.225Z,6.63
2019-05-13T06:42:41.735Z,3.90
2019-05-13T06:45:12.196Z,10.03
2019-05-13T06:47:41.309Z,8.70
2019-05-13T06:50:11.654Z,11.73
2019-05-13T06:52:42.260Z,5.60
2019-05-13T06:55:11.597Z,10.60
2019-05-13T06:57:42.109Z,7.93
2019-05-13T07:00:12.119Z,8.57
2019-05-13T07:02:42.539Z,6.03
2019-05-13T07:05:11.824Z,5.87
2019-05-13T07:07:42.183Z,3.70
2019-05-13T07:10:12.498Z,9.23
2019-05-13T07:12:41.213Z,6.13
2019-05-13T07:15:11.557Z,8.40
2019-05-13T07:17:41.564Z,8.60
2019-05-13T07:20:11.664Z,7.93
2019-05-13T07:22:42.012Z,10.17
2019-05-13T07:25:11.406Z,5.40
2019-05-13T07:27:42.406Z,7.87
2019-05-13T07:30:11.343Z,6.10
2019-05-13T07:32:42.083Z,10.90
2019-05-13T07:35:14.292Z,6.33
2019-05-13T07:37:42.218Z,5.90
2019-05-13T07:40:11.687Z,4.63
2019-05-13T07:42:41.908Z,5.53
2019-05-13T07:45:12.178Z,6.90
2019-05-13T07:47:41.637Z,8.57
2019-05-13T07:50:12.493Z,6.03
2019-05-13T07:52:42.256Z,9.30
2019-05-13T07:55:11.958Z,4.00
2019-05-13T07:57:42.193Z,5.90
2019-05-13T08:00:12.461Z,5.30
2019-05-13T08:02:41.721Z,3.07
2019-05-13T08:05:31.417Z,6.13
2019-05-13T08:08:02.076Z,5.90
2019-05-13T08:10:31.890Z,6.67
2019-05-13T08:13:02.203Z,6.80
2019-05-13T08:15:31.641Z,4.73
2019-05-13T08:18:02.192Z,6.27
2019-05-13T08:20:32.740Z,6.73
2019-05-13T08:23:11.798Z,3.57
2019-05-13T08:25:42.121Z,10.80
2019-05-13T08:28:12.011Z,4.63
2019-05-13T08:30:42.260Z,8.90
2019-05-13T08:33:12.233Z,5.57
2019-05-13T08:35:41.740Z,7.17
2019-05-13T08:38:12.006Z,6.33
2019-05-13T08:40:42.213Z,3.33
2019-05-13T08:43:11.940Z,3.13
2019-05-13T08:45:42.103Z,5.80
2019-05-13T08:48:12.465Z,5.13
2019-05-13T08:50:41.828Z,3.20
2019-05-13T08:53:12.178Z,5.33
2019-05-13T08:55:42.216Z,7.30
2019-05-13T08:58:12.252Z,3.50
2019-05-13T09:00:52.963Z,2.77
2019-05-13T09:03:21.926Z,7.97
2019-05-13T09:05:52.227Z,6.30
2019-05-13T09:08:22.343Z,4.90
2019-05-13T09:10:52.104Z,7.83
2019-05-13T09:13:22.333Z,2.60
2019-05-13T09:16:13.148Z,7.90
2019-05-13T09:18:42.522Z,6.60
2019-05-13T09:21:11.666Z,4.43
2019-05-13T09:23:41.334Z,7.00
2019-05-13T09:26:11.857Z,4.77
2019-05-13T09:28:41.700Z,4.67
2019-05-13T09:31:12.373Z,3.53
2019-05-13T09:33:41.771Z,5.70
2019-05-13T09:36:12.366Z,4.80
2019-05-13T09:38:41.875Z,3.30
2019-05-13T09:41:12.264Z,2.63
2019-05-13T09:43:42.012Z,2.57
2019-05-13T09:46:11.850Z,3.97
2019-05-13T09:48:42.261Z,2.97
2019-05-13T09:51:12.229Z,3.97
2019-05-13T09:53:41.652Z,4.37
2019-05-13T09:56:11.772Z,2.43
2019-05-13T09:58:41.991Z,5.37
2019-05-13T10:01:12.184Z,3.83
2019-05-13T10:03:53.896Z,4.93
2019-05-13T10:06:09.564Z,5.10
2019-05-13T10:08:37.744Z,4.63
2019-05-13T10:11:05.958Z,4.60
2019-05-13T10:13:34.160Z,3.20
2019-05-13T10:16:02.807Z,2.40
2019-05-13T10:18:32.600Z,3.60
2019-05-13T10:21:02.135Z,7.10
2019-05-13T10:23:32.949Z,4.23
2019-05-13T10:26:03.508Z,2.50
2019-05-13T10:28:32.317Z,3.20
2019-05-13T10:31:00.674Z,4.93
2019-05-13T10:33:31.615Z,2.70
2019-05-13T10:35:59.113Z,2.80
2019-05-13T10:38:27.985Z,1.80
2019-05-13T10:40:56.484Z,6.67
2019-05-13T10:43:31.283Z,4.77
2019-05-13T10:45:54.636Z,2.67
2019-05-13T10:48:23.066Z,2.83
2019-05-13T10:50:52.924Z,1.50
2019-05-13T10:53:22.079Z,3.70
2019-05-13T10:55:52.245Z,2.70
2019-05-13T10:58:23.292Z,6.77
2019-05-13T11:00:52.156Z,1.87
2019-05-13T11:03:23.054Z,3.53
2019-05-13T11:05:52.560Z,2.77
2019-05-13T11:08:22.252Z,1.70
2019-05-13T11:10:53.084Z,2.70
2019-05-13T11:13:23.272Z,2.13
2019-05-13T11:15:57.425Z,1.90
2019-05-13T11:18:23.626Z,3.60
2019-05-13T11:20:50.441Z,2.20
2019-05-13T11:23:18.643Z,7.83
2019-05-13T11:25:46.894Z,2.67
2019-05-13T11:28:15.132Z,3.90
2019-05-13T11:30:46.477Z,3.50
2019-05-13T11:33:14.812Z,6.40
2019-05-13T11:35:43.159Z,4.43
2019-05-13T11:38:12.170Z,8.83
2019-05-13T11:40:40.645Z,7.03
2019-05-13T11:43:08.863Z,3.00
2019-05-13T11:45:37.185Z,2.63
2019-05-13T11:48:06.011Z,10.90
2019-05-13T11:50:34.374Z,7.93
2019-05-13T11:53:06.023Z,5.80
2019-05-13T11:55:33.261Z,4.63
2019-05-13T11:58:20.946Z,4.60
2019-05-13T12:00:53.182Z,6.97
2019-05-13T12:03:23.004Z,6.60
2019-05-13T12:05:53.884Z,4.70
2019-05-13T12:08:22.797Z,6.20
2019-05-13T12:10:52.063Z,7.40
2019-05-13T12:13:22.706Z,4.10
2019-05-13T12:15:53.885Z,8.90
2019-05-13T12:18:23.601Z,13.47
2019-05-13T12:20:54.124Z,12.40
2019-05-13T12:23:21.586Z,22.80
2019-05-13T12:25:52.545Z,16.80
2019-05-13T12:28:24.411Z,18.13
2019-05-13T12:30:54.812Z,17.70
2019-05-13T12:33:24.981Z,18.07
2019-05-13T12:35:56.180Z,17.80
2019-05-13T12:38:24.434Z,11.80
2019-05-13T12:40:54.655Z,3.77
2019-05-13T12:43:24.298Z,5.07
2019-05-13T12:45:53.471Z,2.43
2019-05-13T12:48:22.887Z,2.30
2019-05-13T12:50:53.957Z,4.10
2019-05-13T12:53:22.319Z,2.80
2019-05-13T12:55:53.763Z,1.80
2019-05-13T12:58:23.730Z,1.80
2019-05-13T13:01:12.705Z,2.53
2019-05-13T13:03:42.224Z,2.90
2019-05-13T13:06:27.130Z,4.60
2019-05-13T13:08:48.390Z,2.10
2019-05-13T13:11:12.853Z,2.43
2019-05-13T13:13:58.292Z,1.42
2019-05-13T13:16:12.772Z,3.67
2019-05-13T13:18:43.530Z,2.65
2019-05-13T13:21:14.514Z,4.97
2019-05-13T13:23:43.491Z,3.33
2019-05-13T13:26:15.774Z,10.32
2019-05-13T13:28:43.633Z,3.03
2019-05-13T13:31:13.168Z,3.90
2019-05-13T13:33:44.587Z,3.37
2019-05-13T13:36:15.507Z,1.70
2019-05-13T13:38:44.151Z,2.20
2019-05-13T13:41:22.082Z,2.00
2019-05-13T13:43:43.270Z,6.17
2019-05-13T13:46:31.710Z,5.00
2019-05-13T13:48:43.670Z,3.52
2019-05-13T13:51:14.169Z,3.20
2019-05-13T13:53:44.311Z,3.37
2019-05-13T13:56:32.687Z,6.05
2019-05-13T13:59:04.389Z,8.05
2019-05-13T14:01:33.311Z,3.30
2019-05-13T14:04:04.009Z,8.85
2019-05-13T14:07:22.168Z,7.05
2019-05-13T14:09:07.830Z,6.08
2019-05-13T14:11:36.468Z,9.90
2019-05-13T14:14:04.923Z,19.23
2019-05-13T14:16:35.256Z,28.95
2019-05-13T14:19:03.078Z,6.30
2019-05-13T14:21:32.422Z,7.17
2019-05-13T14:24:02.680Z,3.77
2019-05-13T14:26:33.010Z,2.55
2019-05-13T14:29:02.868Z,2.85
2019-05-13T14:31:34.865Z,8.30
2019-05-13T14:34:04.079Z,3.77
2019-05-13T14:36:32.940Z,7.23
2019-05-13T14:39:02.800Z,4.42
2019-05-13T14:41:31.739Z,4.43
2019-05-13T14:44:03.606Z,2.20
2019-05-13T14:46:46.800Z,2.00
2019-05-13T14:49:02.467Z,1.95
2019-05-13T14:51:32.418Z,1.62
2019-05-13T14:54:02.750Z,2.72
2019-05-13T14:56:32.391Z,2.33
2019-05-13T14:59:02.686Z,2.92
2019-05-13T15:01:32.023Z,1.62
2019-05-13T15:04:02.844Z,2.00
2019-05-13T15:06:32.721Z,2.75
2019-05-13T15:09:01.762Z,1.42
2019-05-13T15:11:32.396Z,1.87
2019-05-13T15:14:02.447Z,1.47
2019-05-13T15:16:31.866Z,3.03
2019-05-13T15:19:01.707Z,2.27
2019-05-13T15:21:32.120Z,2.97
2019-05-13T15:24:02.228Z,1.57
2019-05-13T15:26:31.615Z,4.12
2019-05-13T15:29:04.667Z,2.42
2019-05-13T15:31:31.721Z,3.30
2019-05-13T15:34:02.589Z,2.25
2019-05-13T15:36:31.645Z,2.20
2019-05-13T15:39:01.406Z,2.75
2019-05-13T15:41:30.342Z,4.15
2019-05-13T15:44:03.537Z,1.65
2019-05-13T15:46:32.425Z,4.03
2019-05-13T15:49:01.770Z,1.82
2019-05-13T15:51:31.452Z,2.85
2019-05-13T15:54:02.384Z,1.98
2019-05-13T15:56:31.649Z,2.22
2019-05-13T15:59:01.944Z,2.60
2019-05-13T16:01:31.051Z,1.50
2019-05-13T16:04:02.042Z,2.70
2019-05-13T16:06:32.024Z,2.30
2019-05-13T16:09:02.817Z,3.10
2019-05-13T16:11:32.626Z,3.55
2019-05-13T16:14:02.104Z,1.85
2019-05-13T16:16:32.341Z,1.65
2019-05-13T16:19:01.035Z,1.75
2019-05-13T16:21:31.910Z,3.95
2019-05-13T16:24:02.566Z,1.65
2019-05-13T16:26:31.903Z,3.08
2019-05-13T16:29:02.101Z,2.58
2019-05-13T16:31:31.889Z,1.57
2019-05-13T16:34:01.607Z,2.10
2019-05-13T16:36:31.322Z,1.95
2019-05-13T16:39:02.148Z,1.77
2019-05-13T16:41:31.624Z,2.02
2019-05-13T16:44:00.219Z,1.65
2019-05-13T16:46:31.429Z,1.83
2019-05-13T16:49:01.396Z,3.20
2019-05-13T16:51:31.705Z,2.27
2019-05-13T16:54:00.593Z,2.83
2019-05-13T16:56:30.996Z,2.50
2019-05-13T16:59:01.630Z,2.05
2019-05-13T17:01:30.580Z,2.90
2019-05-13T17:04:01.845Z,2.00
2019-05-13T17:06:32.147Z,1.83
2019-05-13T17:09:02.042Z,2.52
2019-05-13T17:11:32.109Z,2.42
2019-05-13T17:14:02.397Z,1.67
2019-05-13T17:16:31.833Z,2.80
2019-05-13T17:19:01.472Z,2.60
2019-05-13T17:21:31.633Z,3.27
2019-05-13T17:24:01.611Z,1.90
2019-05-13T17:26:32.493Z,2.73
2019-05-13T17:29:01.432Z,1.77
2019-05-13T17:31:29.726Z,3.53
2019-05-13T17:33:58.238Z,1.90
2019-05-13T17:36:26.772Z,3.13
2019-05-13T17:38:54.961Z,2.33
2019-05-13T17:41:23.536Z,1.80
2019-05-13T17:43:52.124Z,2.67
2019-05-13T17:46:21.892Z,2.77
2019-05-13T17:48:52.008Z,2.80
2019-05-13T17:51:22.522Z,2.20
2019-05-13T17:53:52.016Z,2.50
2019-05-13T17:56:21.685Z,1.53
2019-05-13T17:58:50.403Z,3.73
2019-05-13T18:01:21.062Z,2.47
2019-05-13T18:03:51.583Z,3.93
2019-05-13T18:06:19.652Z,4.80
2019-05-13T18:08:47.924Z,3.57
2019-05-13T18:11:16.502Z,3.77
2019-05-13T18:13:45.071Z,3.13
2019-05-13T18:16:14.319Z,6.93
2019-05-13T18:18:47.352Z,3.33
2019-05-13T18:21:13.233Z,11.67
2019-05-13T18:23:42.015Z,2.83
2019-05-13T18:26:11.822Z,4.70
2019-05-13T18:28:42.140Z,1.80
2019-05-13T18:31:12.236Z,3.13
2019-05-13T18:33:42.400Z,3.00
2019-05-13T18:36:12.003Z,5.77
2019-05-13T18:38:41.866Z,2.33
2019-05-13T18:41:11.978Z,3.30
2019-05-13T18:43:41.375Z,2.53
2019-05-13T18:46:12.215Z,2.37
2019-05-13T18:48:54.396Z,2.80
2019-05-13T18:51:11.862Z,3.13
2019-05-13T18:53:41.531Z,4.13
2019-05-13T18:56:12.247Z,5.10
2019-05-13T18:58:39.816Z,2.20
2019-05-13T19:01:11.276Z,1.70
2019-05-13T19:03:41.456Z,4.80
2019-05-13T19:06:11.471Z,2.40
2019-05-13T19:08:41.295Z,2.07
2019-05-13T19:11:11.563Z,3.80
2019-05-13T19:13:41.622Z,3.33
2019-05-13T19:16:11.697Z,3.80
2019-05-13T19:18:39.591Z,2.30
2019-05-13T19:21:07.753Z,1.93
2019-05-13T19:23:37.593Z,3.60
2019-05-13T19:26:05.725Z,5.10
2019-05-13T19:28:34.004Z,2.77
2019-05-13T19:31:02.549Z,2.50
2019-05-13T19:33:30.871Z,2.40
2019-05-13T19:36:01.168Z,3.37
2019-05-13T19:38:29.064Z,5.00
2019-05-13T19:40:58.457Z,5.23
2019-05-13T19:43:26.663Z,3.03
2019-05-13T19:45:54.984Z,1.87
2019-05-13T19:48:23.567Z,5.10
2019-05-13T19:50:52.221Z,3.80
2019-05-13T19:53:21.564Z,4.27
2019-05-13T19:55:51.935Z,2.27
2019-05-13T19:58:21.653Z,3.33
2019-05-13T20:00:51.631Z,4.47
2019-05-13T20:03:21.927Z,2.83
2019-05-13T20:05:51.407Z,3.30
2019-05-13T20:08:21.170Z,3.03
2019-05-13T20:10:51.652Z,3.93
2019-05-13T20:13:21.713Z,2.30
2019-05-13T20:15:51.727Z,2.20
2019-05-13T20:18:19.567Z,2.13
2019-05-13T20:20:48.142Z,2.20
2019-05-13T20:23:16.920Z,3.25
2019-05-13T20:25:47.140Z,4.50
2019-05-13T20:28:15.964Z,2.27
2019-05-13T20:30:45.561Z,2.50
2019-05-13T20:33:14.100Z,3.42
2019-05-13T20:35:42.418Z,3.27
2019-05-13T20:38:11.619Z,2.20
2019-05-13T20:40:41.444Z,2.63
2019-05-13T20:43:11.858Z,1.95
2019-05-13T20:45:42.084Z,3.42
2019-05-13T20:48:11.944Z,2.87
2019-05-13T20:50:41.282Z,2.50
2019-05-13T20:53:11.532Z,2.50
2019-05-13T20:55:41.737Z,1.80
2019-05-13T20:58:12.755Z,2.72
2019-05-13T21:00:42.242Z,3.10
2019-05-13T21:03:11.741Z,3.27
2019-05-13T21:05:58.981Z,2.63
2019-05-13T21:08:28.100Z,2.33
2019-05-13T21:10:56.628Z,3.50
2019-05-13T21:13:31.849Z,3.10
2019-05-13T21:16:03.581Z,1.97
2019-05-13T21:18:33.586Z,2.25
2019-05-13T21:21:01.914Z,3.10
2019-05-13T21:23:31.313Z,4.05
2019-05-13T21:26:02.159Z,2.33
2019-05-13T21:28:31.005Z,4.37
2019-05-13T21:31:03.138Z,7.60
2019-05-13T21:33:31.981Z,4.65
2019-05-13T21:36:01.724Z,3.80
2019-05-13T21:38:32.471Z,4.53
2019-05-13T21:41:00.645Z,3.30
2019-05-13T21:43:29.121Z,5.50
2019-05-13T21:45:57.266Z,2.30
2019-05-13T21:51:13.218Z,3.17
2019-05-13T21:53:41.428Z,1.87
2019-05-13T21:56:12.337Z,6.62
2019-05-13T21:58:41.659Z,5.12
2019-05-13T22:01:09.968Z,4.63
2019-05-13T22:03:38.517Z,7.15
2019-05-13T22:06:06.745Z,2.27
2019-05-13T22:08:35.606Z,4.12
2019-05-13T22:11:23.727Z,8.10
2019-05-13T22:13:52.627Z,1.82
2019-05-13T22:16:21.569Z,3.83
2019-05-13T22:18:52.479Z,5.25
2019-05-13T22:21:21.993Z,4.53
2019-05-13T22:23:51.759Z,5.87
2019-05-13T22:26:22.084Z,3.13
2019-05-13T22:28:51.222Z,6.62
2019-05-13T22:31:19.519Z,3.00
2019-05-13T22:33:47.999Z,3.90
2019-05-13T22:36:16.763Z,4.12
2019-05-13T22:38:45.385Z,3.90
2019-05-13T22:41:16.343Z,2.80
2019-05-13T22:43:54.384Z,3.35
2019-05-13T22:46:15.036Z,2.65
2019-05-13T22:48:43.905Z,4.00
2019-05-13T22:51:12.189Z,2.63
2019-05-13T22:53:42.208Z,2.30
2019-05-13T22:56:11.172Z,2.72
2019-05-13T22:58:41.245Z,2.87
2019-05-13T23:01:11.527Z,3.30
2019-05-13T23:03:41.257Z,3.00
2019-05-13T23:06:11.912Z,5.67
2019-05-13T23:08:39.921Z,6.75
2019-05-13T23:11:08.752Z,3.35
2019-05-13T23:13:37.233Z,4.33
2019-05-13T23:16:05.763Z,3.33
2019-05-13T23:18:34.553Z,3.35
2019-05-13T23:21:02.775Z,2.90
2019-05-13T23:23:31.250Z,4.10
2019-05-13T23:26:00.061Z,4.95
2019-05-13T23:28:28.507Z,3.20
2019-05-13T23:30:57.036Z,3.37
2019-05-13T23:33:25.572Z,4.37
2019-05-13T23:35:54.016Z,3.58
2019-05-13T23:38:22.462Z,8.05
2019-05-13T23:40:51.545Z,5.67
2019-05-13T23:43:21.673Z,5.28
2019-05-13T23:45:51.109Z,3.53
2019-05-13T23:48:21.554Z,5.45
2019-05-13T23:50:52.177Z,4.37
2019-05-13T23:53:21.910Z,6.22
2019-05-13T23:55:51.985Z,6.90
2019-05-13T23:58:21.696Z,5.30
